Stockbridge, Georgia
Current Conditions -  °F | °C
As of 2:52 AM on Sunday 26 Oct 2014 (Local Time) from KATL Reporting Station
Clear Clear  
Wind Chill: 16°   Ceiling: Unl
Heat Index: 16°   Visibility: 10mi
Dew Point: 12°   Wind: 10mph
Humidity: 78%   Direction: 310°NW
Pressure: 30"   Gusts: NA
Location:  33.54°N, 84.23°W
Report Text: KATL 260652Z 31009KT 10SM CLR 16/12 A3000 RMK AO2 SLP154 T01560117
Loading
Personal Weather Stations






























Interactive Weather Map
Tropical Storm Tracking
New forecast layout! Learn more

10-Day Weather Forecast

Advertisements
Track Severe Weather on mobile